sensor_id;sensor_type;location;lat;lon;timestamp;P1;durP1;ratioP1;P2;durP2;ratioP2
14396;SDS011;50653;47.810;13.022;2023-03-01T00:01:23;29.08;;;24.05;;
14396;SDS011;50653;47.810;13.022;2023-03-01T00:03:51;31.02;;;24.35;;
14396;SDS011;50653;47.810;13.022;2023-03-01T00:06:18;30.67;;;25.10;;
14396;SDS011;50653;47.810;13.022;2023-03-01T00:08:45;31.48;;;24.75;;
14396;SDS011;50653;47.810;13.022;2023-03-01T00:11:21;31.35;;;25.02;;
14396;SDS011;50653;47.810;13.022;2023-03-01T00:13:50;30.63;;;25.23;;
14396;SDS011;50653;47.810;13.022;2023-03-01T00:16:19;29.20;;;24.67;;
14396;SDS011;50653;47.810;13.022;2023-03-01T00:18:48;30.15;;;23.90;;
14396;SDS011;50653;47.810;13.022;2023-03-01T00:21:13;32.30;;;24.50;;
14396;SDS011;50653;47.810;13.022;2023-03-01T00:23:39;31.88;;;25.30;;
14396;SDS011;50653;47.810;13.022;2023-03-01T00:26:05;38.72;;;29.48;;
14396;SDS011;50653;47.810;13.022;2023-03-01T00:28:34;29.25;;;23.60;;
14396;SDS011;50653;47.810;13.022;2023-03-01T00:31:07;31.42;;;24.13;;
14396;SDS011;50653;47.810;13.022;2023-03-01T00:33:44;30.27;;;25.00;;
14396;SDS011;50653;47.810;13.022;2023-03-01T00:36:10;34.85;;;24.38;;
14396;SDS011;50653;47.810;13.022;2023-03-01T00:38:39;39.03;;;25.63;;
14396;SDS011;50653;47.810;13.022;2023-03-01T00:41:07;30.75;;;26.33;;
14396;SDS011;50653;47.810;13.022;2023-03-01T00:43:35;33.38;;;27.17;;
14396;SDS011;50653;47.810;13.022;2023-03-01T00:46:05;29.33;;;23.60;;
14396;SDS011;50653;47.810;13.022;2023-03-01T00:48:33;34.10;;;26.80;;
14396;SDS011;50653;47.810;13.022;2023-03-01T00:51:10;32.75;;;25.33;;
14396;SDS011;50653;47.810;13.022;2023-03-01T00:53:37;35.30;;;26.27;;
14396;SDS011;50653;47.810;13.022;2023-03-01T00:56:04;30.13;;;23.80;;
14396;SDS011;50653;47.810;13.022;2023-03-01T00:58:31;32.40;;;26.37;;
14396;SDS011;50653;47.810;13.022;2023-03-01T01:00:56;30.53;;;24.97;;
14396;SDS011;50653;47.810;13.022;2023-03-01T01:03:22;29.87;;;24.20;;
14396;SDS011;50653;47.810;13.022;2023-03-01T01:05:50;28.80;;;24.30;;
14396;SDS011;50653;47.810;13.022;2023-03-01T01:08:19;34.10;;;25.58;;
14396;SDS011;50653;47.810;13.022;2023-03-01T01:10:45;35.53;;;26.98;;
14396;SDS011;50653;47.810;13.022;2023-03-01T01:13:12;30.30;;;25.55;;
14396;SDS011;50653;47.810;13.022;2023-03-01T01:15:38;34.40;;;26.17;;
14396;SDS011;50653;47.810;13.022;2023-03-01T01:18:04;32.45;;;25.98;;
14396;SDS011;50653;47.810;13.022;2023-03-01T01:20:30;30.80;;;24.63;;
14396;SDS011;50653;47.810;13.022;2023-03-01T01:22:57;32.03;;;25.95;;
14396;SDS011;50653;47.810;13.022;2023-03-01T01:25:23;35.42;;;25.75;;
14396;SDS011;50653;47.810;13.022;2023-03-01T01:27:50;33.90;;;26.73;;
14396;SDS011;50653;47.810;13.022;2023-03-01T01:30:16;30.40;;;24.80;;
14396;SDS011;50653;47.810;13.022;2023-03-01T01:32:42;34.03;;;27.08;;
14396;SDS011;50653;47.810;13.022;2023-03-01T01:35:08;34.67;;;26.40;;
14396;SDS011;50653;47.810;13.022;2023-03-01T01:37:33;33.38;;;26.77;;
14396;SDS011;50653;47.810;13.022;2023-03-01T01:39:59;32.92;;;26.92;;
14396;SDS011;50653;47.810;13.022;2023-03-01T01:42:28;33.05;;;25.38;;
14396;SDS011;50653;47.810;13.022;2023-03-01T01:48:07;34.10;;;27.70;;
14396;SDS011;50653;47.810;13.022;2023-03-01T01:50:38;30.92;;;24.98;;
14396;SDS011;50653;47.810;13.022;2023-03-01T01:53:15;35.97;;;27.38;;
14396;SDS011;50653;47.810;13.022;2023-03-01T01:55:48;29.25;;;25.00;;
14396;SDS011;50653;47.810;13.022;2023-03-01T01:58:19;36.08;;;27.48;;
14396;SDS011;50653;47.810;13.022;2023-03-01T02:00:46;30.90;;;25.15;;
14396;SDS011;50653;47.810;13.022;2023-03-01T02:03:14;33.30;;;25.45;;
14396;SDS011;50653;47.810;13.022;2023-03-01T02:05:58;34.92;;;25.80;;
14396;SDS011;50653;47.810;13.022;2023-03-01T02:08:31;33.77;;;27.07;;
14396;SDS011;50653;47.810;13.022;2023-03-01T02:11:00;31.02;;;25.92;;
14396;SDS011;50653;47.810;13.022;2023-03-01T02:13:29;29.45;;;24.95;;
14396;SDS011;50653;47.810;13.022;2023-03-01T02:15:56;33.25;;;26.35;;
14396;SDS011;50653;47.810;13.022;2023-03-01T02:18:22;29.23;;;24.83;;
14396;SDS011;50653;47.810;13.022;2023-03-01T02:23:36;31.05;;;24.08;;
14396;SDS011;50653;47.810;13.022;2023-03-01T02:26:06;34.17;;;24.40;;
14396;SDS011;50653;47.810;13.022;2023-03-01T02:28:37;33.90;;;25.80;;
14396;SDS011;50653;47.810;13.022;2023-03-01T02:31:05;34.25;;;26.45;;
14396;SDS011;50653;47.810;13.022;2023-03-01T02:33:52;30.20;;;25.55;;
14396;SDS011;50653;47.810;13.022;2023-03-01T02:36:21;31.42;;;25.13;;
14396;SDS011;50653;47.810;13.022;2023-03-01T02:38:51;33.53;;;26.40;;
14396;SDS011;50653;47.810;13.022;2023-03-01T02:41:21;32.33;;;24.08;;
14396;SDS011;50653;47.810;13.022;2023-03-01T02:43:48;32.00;;;25.02;;
14396;SDS011;50653;47.810;13.022;2023-03-01T02:46:18;33.30;;;25.30;;
14396;SDS011;50653;47.810;13.022;2023-03-01T02:48:50;30.73;;;25.17;;
14396;SDS011;50653;47.810;13.022;2023-03-01T02:56:39;34.80;;;25.50;;
14396;SDS011;50653;47.810;13.022;2023-03-01T02:59:06;27.75;;;23.77;;
14396;SDS011;50653;47.810;13.022;2023-03-01T03:01:34;32.13;;;25.97;;
14396;SDS011;50653;47.810;13.022;2023-03-01T03:04:05;32.97;;;25.33;;
14396;SDS011;50653;47.810;13.022;2023-03-01T03:06:33;34.95;;;26.48;;
14396;SDS011;50653;47.810;13.022;2023-03-01T03:08:59;30.80;;;25.35;;
14396;SDS011;50653;47.810;13.022;2023-03-01T03:11:25;30.80;;;25.77;;
14396;SDS011;50653;47.810;13.022;2023-03-01T03:13:51;31.00;;;24.95;;
14396;SDS011;50653;47.810;13.022;2023-03-01T03:16:18;35.00;;;26.40;;
14396;SDS011;50653;47.810;13.022;2023-03-01T03:18:44;34.10;;;27.07;;
14396;SDS011;50653;47.810;13.022;2023-03-01T03:21:11;33.03;;;25.07;;
14396;SDS011;50653;47.810;13.022;2023-03-01T03:23:37;31.50;;;24.73;;
14396;SDS011;50653;47.810;13.022;2023-03-01T03:26:03;30.45;;;25.60;;
14396;SDS011;50653;47.810;13.022;2023-03-01T03:28:30;30.58;;;25.83;;
14396;SDS011;50653;47.810;13.022;2023-03-01T03:31:00;31.38;;;25.85;;
14396;SDS011;50653;47.810;13.022;2023-03-01T03:33:29;32.17;;;27.02;;
14396;SDS011;50653;47.810;13.022;2023-03-01T03:35:55;32.42;;;24.45;;
14396;SDS011;50653;47.810;13.022;2023-03-01T03:38:21;32.07;;;26.50;;
14396;SDS011;50653;47.810;13.022;2023-03-01T03:40:48;29.00;;;24.15;;
14396;SDS011;50653;47.810;13.022;2023-03-01T03:43:17;29.67;;;25.35;;
14396;SDS011;50653;47.810;13.022;2023-03-01T03:45:45;31.50;;;26.27;;
14396;SDS011;50653;47.810;13.022;2023-03-01T03:48:11;31.60;;;25.42;;
14396;SDS011;50653;47.810;13.022;2023-03-01T03:50:38;35.97;;;26.90;;
14396;SDS011;50653;47.810;13.022;2023-03-01T03:53:09;33.60;;;27.47;;
14396;SDS011;50653;47.810;13.022;2023-03-01T03:55:36;32.15;;;26.15;;
14396;SDS011;50653;47.810;13.022;2023-03-01T03:58:04;38.95;;;27.73;;
14396;SDS011;50653;47.810;13.022;2023-03-01T04:00:32;30.85;;;25.38;;
14396;SDS011;50653;47.810;13.022;2023-03-01T04:03:06;33.72;;;26.38;;
14396;SDS011;50653;47.810;13.022;2023-03-01T04:05:33;32.10;;;25.90;;
14396;SDS011;50653;47.810;13.022;2023-03-01T04:08:00;37.47;;;27.38;;
14396;SDS011;50653;47.810;13.022;2023-03-01T04:10:29;34.37;;;26.63;;
14396;SDS011;50653;47.810;13.022;2023-03-01T04:12:56;37.15;;;28.25;;
14396;SDS011;50653;47.810;13.022;2023-03-01T04:15:22;36.50;;;28.25;;
14396;SDS011;50653;47.810;13.022;2023-03-01T04:17:50;33.85;;;27.35;;
14396;SDS011;50653;47.810;13.022;2023-03-01T04:20:18;34.88;;;27.00;;
14396;SDS011;50653;47.810;13.022;2023-03-01T04:22:59;31.65;;;25.83;;
14396;SDS011;50653;47.810;13.022;2023-03-01T04:25:25;34.47;;;26.83;;
14396;SDS011;50653;47.810;13.022;2023-03-01T04:27:51;33.33;;;25.20;;
14396;SDS011;50653;47.810;13.022;2023-03-01T04:30:16;37.67;;;28.83;;
14396;SDS011;50653;47.810;13.022;2023-03-01T04:32:42;36.47;;;28.20;;
14396;SDS011;50653;47.810;13.022;2023-03-01T04:35:08;40.53;;;31.17;;
14396;SDS011;50653;47.810;13.022;2023-03-01T04:37:34;35.70;;;27.33;;
14396;SDS011;50653;47.810;13.022;2023-03-01T04:40:00;35.42;;;29.02;;
14396;SDS011;50653;47.810;13.022;2023-03-01T04:42:37;37.20;;;28.90;;
14396;SDS011;50653;47.810;13.022;2023-03-01T04:45:03;37.97;;;29.10;;
14396;SDS011;50653;47.810;13.022;2023-03-01T04:47:38;32.20;;;25.98;;
14396;SDS011;50653;47.810;13.022;2023-03-01T04:50:04;32.70;;;26.58;;
14396;SDS011;50653;47.810;13.022;2023-03-01T04:52:30;35.83;;;27.50;;
14396;SDS011;50653;47.810;13.022;2023-03-01T04:54:56;36.15;;;26.20;;
14396;SDS011;50653;47.810;13.022;2023-03-01T04:57:22;38.43;;;27.90;;
14396;SDS011;50653;47.810;13.022;2023-03-01T04:59:47;32.40;;;25.67;;
14396;SDS011;50653;47.810;13.022;2023-03-01T05:02:13;36.03;;;27.03;;
14396;SDS011;50653;47.810;13.022;2023-03-01T05:04:39;35.47;;;27.90;;
14396;SDS011;50653;47.810;13.022;2023-03-01T05:07:04;33.37;;;26.97;;
14396;SDS011;50653;47.810;13.022;2023-03-01T05:09:30;32.22;;;26.48;;
14396;SDS011;50653;47.810;13.022;2023-03-01T05:11:55;35.28;;;27.30;;
14396;SDS011;50653;47.810;13.022;2023-03-01T05:14:21;34.65;;;26.58;;
14396;SDS011;50653;47.810;13.022;2023-03-01T05:16:47;39.97;;;28.30;;
14396;SDS011;50653;47.810;13.022;2023-03-01T05:19:13;37.23;;;28.07;;
14396;SDS011;50653;47.810;13.022;2023-03-01T05:21:47;33.03;;;28.48;;
14396;SDS011;50653;47.810;13.022;2023-03-01T05:24:32;34.40;;;26.80;;
14396;SDS011;50653;47.810;13.022;2023-03-01T05:26:59;38.08;;;27.70;;
14396;SDS011;50653;47.810;13.022;2023-03-01T05:29:26;38.17;;;28.40;;
14396;SDS011;50653;47.810;13.022;2023-03-01T05:31:54;39.08;;;29.42;;
14396;SDS011;50653;47.810;13.022;2023-03-01T05:34:27;34.72;;;27.52;;
14396;SDS011;50653;47.810;13.022;2023-03-01T05:36:57;35.75;;;27.15;;
14396;SDS011;50653;47.810;13.022;2023-03-01T05:39:24;34.75;;;26.83;;
14396;SDS011;50653;47.810;13.022;2023-03-01T05:41:54;37.08;;;27.77;;
14396;SDS011;50653;47.810;13.022;2023-03-01T05:44:24;36.42;;;28.63;;
14396;SDS011;50653;47.810;13.022;2023-03-01T05:46:50;38.73;;;27.33;;
14396;SDS011;50653;47.810;13.022;2023-03-01T05:49:16;35.28;;;29.23;;
14396;SDS011;50653;47.810;13.022;2023-03-01T05:51:43;39.78;;;27.88;;
14396;SDS011;50653;47.810;13.022;2023-03-01T05:54:18;37.95;;;29.67;;
14396;SDS011;50653;47.810;13.022;2023-03-01T05:56:45;36.93;;;28.30;;
14396;SDS011;50653;47.810;13.022;2023-03-01T05:59:12;35.55;;;28.75;;
14396;SDS011;50653;47.810;13.022;2023-03-01T06:01:38;41.67;;;30.58;;
14396;SDS011;50653;47.810;13.022;2023-03-01T06:04:04;37.42;;;26.63;;
14396;SDS011;50653;47.810;13.022;2023-03-01T06:06:33;37.05;;;28.77;;
14396;SDS011;50653;47.810;13.022;2023-03-01T06:08:59;38.00;;;27.75;;
14396;SDS011;50653;47.810;13.022;2023-03-01T06:11:25;41.58;;;31.30;;
14396;SDS011;50653;47.810;13.022;2023-03-01T06:13:50;43.05;;;31.08;;
14396;SDS011;50653;47.810;13.022;2023-03-01T06:16:16;41.63;;;28.38;;
14396;SDS011;50653;47.810;13.022;2023-03-01T06:18:42;40.15;;;31.20;;
14396;SDS011;50653;47.810;13.022;2023-03-01T06:21:08;37.60;;;29.48;;
14396;SDS011;50653;47.810;13.022;2023-03-01T06:23:34;41.92;;;31.55;;
14396;SDS011;50653;47.810;13.022;2023-03-01T06:26:00;41.38;;;30.02;;
14396;SDS011;50653;47.810;13.022;2023-03-01T06:28:29;40.35;;;31.17;;
14396;SDS011;50653;47.810;13.022;2023-03-01T06:30:55;40.10;;;30.35;;
14396;SDS011;50653;47.810;13.022;2023-03-01T06:33:21;46.25;;;30.85;;
14396;SDS011;50653;47.810;13.022;2023-03-01T06:35:49;37.97;;;30.10;;
14396;SDS011;50653;47.810;13.022;2023-03-01T06:38:15;37.60;;;29.10;;
14396;SDS011;50653;47.810;13.022;2023-03-01T06:40:43;43.17;;;31.35;;
14396;SDS011;50653;47.810;13.022;2023-03-01T06:43:08;36.00;;;29.27;;
14396;SDS011;50653;47.810;13.022;2023-03-01T06:45:34;36.15;;;29.83;;
14396;SDS011;50653;47.810;13.022;2023-03-01T06:48:06;40.70;;;30.70;;
14396;SDS011;50653;47.810;13.022;2023-03-01T06:50:33;45.30;;;31.40;;
14396;SDS011;50653;47.810;13.022;2023-03-01T06:52:59;40.53;;;28.73;;
14396;SDS011;50653;47.810;13.022;2023-03-01T06:55:25;40.75;;;31.27;;
14396;SDS011;50653;47.810;13.022;2023-03-01T06:57:54;38.45;;;30.30;;
14396;SDS011;50653;47.810;13.022;2023-03-01T07:00:24;46.08;;;31.67;;
14396;SDS011;50653;47.810;13.022;2023-03-01T07:02:50;46.83;;;33.28;;
14396;SDS011;50653;47.810;13.022;2023-03-01T07:05:16;43.07;;;31.73;;
14396;SDS011;50653;47.810;13.022;2023-03-01T07:07:42;40.63;;;31.60;;
14396;SDS011;50653;47.810;13.022;2023-03-01T07:10:08;43.77;;;31.80;;
14396;SDS011;50653;47.810;13.022;2023-03-01T07:12:34;40.90;;;30.85;;
14396;SDS011;50653;47.810;13.022;2023-03-01T07:15:00;37.65;;;30.10;;
14396;SDS011;50653;47.810;13.022;2023-03-01T07:17:25;45.83;;;32.30;;
14396;SDS011;50653;47.810;13.022;2023-03-01T07:19:51;44.03;;;32.55;;
14396;SDS011;50653;47.810;13.022;2023-03-01T07:22:17;44.83;;;31.15;;
14396;SDS011;50653;47.810;13.022;2023-03-01T07:24:42;41.08;;;32.03;;
14396;SDS011;50653;47.810;13.022;2023-03-01T07:27:08;42.38;;;29.30;;
14396;SDS011;50653;47.810;13.022;2023-03-01T07:29:34;39.10;;;31.05;;
14396;SDS011;50653;47.810;13.022;2023-03-01T07:32:01;39.73;;;30.47;;
14396;SDS011;50653;47.810;13.022;2023-03-01T07:34:28;48.10;;;34.33;;
14396;SDS011;50653;47.810;13.022;2023-03-01T07:36:54;40.88;;;31.65;;
14396;SDS011;50653;47.810;13.022;2023-03-01T07:39:20;41.40;;;28.45;;
14396;SDS011;50653;47.810;13.022;2023-03-01T07:41:48;37.67;;;28.73;;
14396;SDS011;50653;47.810;13.022;2023-03-01T07:44:15;39.47;;;29.07;;
14396;SDS011;50653;47.810;13.022;2023-03-01T07:46:42;43.08;;;29.38;;
14396;SDS011;50653;47.810;13.022;2023-03-01T07:49:08;37.42;;;28.83;;
14396;SDS011;50653;47.810;13.022;2023-03-01T07:51:34;37.05;;;29.15;;
14396;SDS011;50653;47.810;13.022;2023-03-01T07:54:00;43.92;;;31.42;;
14396;SDS011;50653;47.810;13.022;2023-03-01T07:56:25;51.08;;;31.88;;
14396;SDS011;50653;47.810;13.022;2023-03-01T07:58:51;51.88;;;31.25;;
14396;SDS011;50653;47.810;13.022;2023-03-01T08:01:17;45.25;;;29.45;;
14396;SDS011;50653;47.810;13.022;2023-03-01T08:03:44;44.53;;;29.05;;
14396;SDS011;50653;47.810;13.022;2023-03-01T08:06:11;43.85;;;31.10;;
14396;SDS011;50653;47.810;13.022;2023-03-01T08:08:39;45.22;;;29.38;;
14396;SDS011;50653;47.810;13.022;2023-03-01T08:11:05;44.97;;;31.48;;
14396;SDS011;50653;47.810;13.022;2023-03-01T08:13:32;45.90;;;31.00;;
14396;SDS011;50653;47.810;13.022;2023-03-01T08:16:02;46.00;;;32.33;;
14396;SDS011;50653;47.810;13.022;2023-03-01T08:18:32;42.95;;;32.03;;
14396;SDS011;50653;47.810;13.022;2023-03-01T08:21:04;50.93;;;34.73;;
14396;SDS011;50653;47.810;13.022;2023-03-01T08:23:41;41.95;;;28.80;;
14396;SDS011;50653;47.810;13.022;2023-03-01T08:26:08;42.83;;;29.83;;
14396;SDS011;50653;47.810;13.022;2023-03-01T08:28:35;39.73;;;28.83;;
14396;SDS011;50653;47.810;13.022;2023-03-01T08:31:01;41.13;;;29.60;;
14396;SDS011;50653;47.810;13.022;2023-03-01T08:33:28;36.38;;;29.42;;
14396;SDS011;50653;47.810;13.022;2023-03-01T08:36:15;42.30;;;31.63;;
14396;SDS011;50653;47.810;13.022;2023-03-01T08:38:40;42.90;;;31.52;;
14396;SDS011;50653;47.810;13.022;2023-03-01T08:41:06;48.00;;;34.63;;
14396;SDS011;50653;47.810;13.022;2023-03-01T08:43:31;38.73;;;30.57;;
14396;SDS011;50653;47.810;13.022;2023-03-01T08:45:57;38.77;;;29.90;;
14396;SDS011;50653;47.810;13.022;2023-03-01T08:48:23;35.77;;;28.10;;
14396;SDS011;50653;47.810;13.022;2023-03-01T08:50:49;35.17;;;27.07;;
14396;SDS011;50653;47.810;13.022;2023-03-01T08:53:14;37.10;;;27.20;;
14396;SDS011;50653;47.810;13.022;2023-03-01T08:55:40;36.93;;;27.10;;
14396;SDS011;50653;47.810;13.022;2023-03-01T08:58:05;36.10;;;28.67;;
14396;SDS011;50653;47.810;13.022;2023-03-01T09:00:31;38.20;;;28.58;;
14396;SDS011;50653;47.810;13.022;2023-03-01T09:02:59;35.20;;;25.88;;
14396;SDS011;50653;47.810;13.022;2023-03-01T09:09:57;38.70;;;29.40;;
14396;SDS011;50653;47.810;13.022;2023-03-01T09:12:23;42.20;;;31.57;;
14396;SDS011;50653;47.810;13.022;2023-03-01T09:18:51;36.42;;;28.40;;
14396;SDS011;50653;47.810;13.022;2023-03-01T09:21:18;36.63;;;28.25;;
14396;SDS011;50653;47.810;13.022;2023-03-01T09:23:47;38.97;;;27.38;;
14396;SDS011;50653;47.810;13.022;2023-03-01T09:26:15;36.00;;;27.70;;
14396;SDS011;50653;47.810;13.022;2023-03-01T09:32:30;35.80;;;27.95;;
14396;SDS011;50653;47.810;13.022;2023-03-01T09:34:59;37.13;;;27.90;;
14396;SDS011;50653;47.810;13.022;2023-03-01T09:38:18;37.10;;;29.00;;
14396;SDS011;50653;47.810;13.022;2023-03-01T09:40:55;34.78;;;28.70;;
14396;SDS011;50653;47.810;13.022;2023-03-01T10:18:17;33.97;;;25.75;;
14396;SDS011;50653;47.810;13.022;2023-03-01T10:20:51;34.13;;;26.67;;
14396;SDS011;50653;47.810;13.022;2023-03-01T10:23:29;36.65;;;26.83;;
14396;SDS011;50653;47.810;13.022;2023-03-01T10:26:14;33.30;;;25.47;;
14396;SDS011;50653;47.810;13.022;2023-03-01T10:31:39;34.08;;;26.85;;
14396;SDS011;50653;47.810;13.022;2023-03-01T10:34:18;31.83;;;24.60;;
14396;SDS011;50653;47.810;13.022;2023-03-01T10:36:50;35.58;;;26.17;;
14396;SDS011;50653;47.810;13.022;2023-03-01T10:39:21;38.88;;;29.45;;
14396;SDS011;50653;47.810;13.022;2023-03-01T10:41:56;40.15;;;29.90;;
14396;SDS011;50653;47.810;13.022;2023-03-01T10:44:36;41.60;;;32.05;;
14396;SDS011;50653;47.810;13.022;2023-03-01T10:47:14;36.40;;;29.13;;
14396;SDS011;50653;47.810;13.022;2023-03-01T10:49:51;38.25;;;30.33;;
14396;SDS011;50653;47.810;13.022;2023-03-01T10:52:20;37.90;;;29.67;;
14396;SDS011;50653;47.810;13.022;2023-03-01T10:54:52;31.38;;;25.45;;
14396;SDS011;50653;47.810;13.022;2023-03-01T10:57:31;36.38;;;27.98;;
14396;SDS011;50653;47.810;13.022;2023-03-01T11:02:49;35.67;;;28.58;;
14396;SDS011;50653;47.810;13.022;2023-03-01T11:05:35;40.72;;;30.33;;
14396;SDS011;50653;47.810;13.022;2023-03-01T11:08:01;36.87;;;28.73;;
14396;SDS011;50653;47.810;13.022;2023-03-01T11:10:31;38.47;;;29.57;;
14396;SDS011;50653;47.810;13.022;2023-03-01T11:13:15;35.85;;;27.02;;
14396;SDS011;50653;47.810;13.022;2023-03-01T11:15:43;32.42;;;23.80;;
14396;SDS011;50653;47.810;13.022;2023-03-01T11:18:23;33.55;;;24.60;;
14396;SDS011;50653;47.810;13.022;2023-03-01T11:20:50;39.38;;;26.90;;
14396;SDS011;50653;47.810;13.022;2023-03-01T11:23:18;30.50;;;22.27;;
14396;SDS011;50653;47.810;13.022;2023-03-01T11:25:52;29.88;;;22.13;;
14396;SDS011;50653;47.810;13.022;2023-03-01T11:28:21;33.25;;;24.10;;
14396;SDS011;50653;47.810;13.022;2023-03-01T11:33:39;30.48;;;23.73;;
14396;SDS011;50653;47.810;13.022;2023-03-01T11:36:19;29.02;;;23.02;;
14396;SDS011;50653;47.810;13.022;2023-03-01T11:42:06;35.88;;;28.05;;
14396;SDS011;50653;47.810;13.022;2023-03-01T11:44:50;32.38;;;26.10;;
14396;SDS011;50653;47.810;13.022;2023-03-01T11:47:25;35.28;;;26.30;;
14396;SDS011;50653;47.810;13.022;2023-03-01T11:58:35;35.33;;;26.90;;
14396;SDS011;50653;47.810;13.022;2023-03-01T12:07:04;33.90;;;25.92;;
14396;SDS011;50653;47.810;13.022;2023-03-01T12:29:25;33.70;;;26.47;;
14396;SDS011;50653;47.810;13.022;2023-03-01T12:32:15;35.58;;;27.13;;
14396;SDS011;50653;47.810;13.022;2023-03-01T12:35:22;32.30;;;25.13;;
14396;SDS011;50653;47.810;13.022;2023-03-01T12:43:49;35.30;;;26.48;;
14396;SDS011;50653;47.810;13.022;2023-03-01T12:49:38;36.28;;;28.35;;
14396;SDS011;50653;47.810;13.022;2023-03-01T12:52:15;35.70;;;28.15;;
14396;SDS011;50653;47.810;13.022;2023-03-01T12:54:47;36.55;;;29.50;;
14396;SDS011;50653;47.810;13.022;2023-03-01T12:57:30;35.67;;;28.48;;
14396;SDS011;50653;47.810;13.022;2023-03-01T13:02:59;37.78;;;28.27;;
14396;SDS011;50653;47.810;13.022;2023-03-01T13:05:55;37.03;;;27.92;;
14396;SDS011;50653;47.810;13.022;2023-03-01T13:08:31;36.83;;;28.00;;
14396;SDS011;50653;47.810;13.022;2023-03-01T13:11:11;38.20;;;28.52;;
14396;SDS011;50653;47.810;13.022;2023-03-01T13:13:44;37.03;;;28.40;;
14396;SDS011;50653;47.810;13.022;2023-03-01T13:16:19;35.35;;;26.38;;
14396;SDS011;50653;47.810;13.022;2023-03-01T13:21:47;33.47;;;25.17;;
14396;SDS011;50653;47.810;13.022;2023-03-01T13:24:24;35.97;;;26.33;;
14396;SDS011;50653;47.810;13.022;2023-03-01T13:29:49;30.25;;;25.02;;
14396;SDS011;50653;47.810;13.022;2023-03-01T13:35:00;32.10;;;26.13;;
14396;SDS011;50653;47.810;13.022;2023-03-01T13:37:36;31.75;;;23.95;;
14396;SDS011;50653;47.810;13.022;2023-03-01T13:42:54;29.60;;;24.60;;
14396;SDS011;50653;47.810;13.022;2023-03-01T13:47:47;36.57;;;24.70;;
14396;SDS011;50653;47.810;13.022;2023-03-01T13:50:21;39.60;;;25.58;;
14396;SDS011;50653;47.810;13.022;2023-03-01T13:52:50;35.00;;;26.77;;
14396;SDS011;50653;47.810;13.022;2023-03-01T13:55:24;28.87;;;24.87;;
14396;SDS011;50653;47.810;13.022;2023-03-01T13:58:03;30.45;;;23.80;;
14396;SDS011;50653;47.810;13.022;2023-03-01T14:00:39;31.02;;;24.35;;
14396;SDS011;50653;47.810;13.022;2023-03-01T14:03:16;32.53;;;24.67;;
14396;SDS011;50653;47.810;13.022;2023-03-01T14:05:57;30.65;;;25.00;;
14396;SDS011;50653;47.810;13.022;2023-03-01T14:08:36;29.55;;;23.65;;
14396;SDS011;50653;47.810;13.022;2023-03-01T14:16:31;30.50;;;23.17;;
14396;SDS011;50653;47.810;13.022;2023-03-01T14:19:12;28.30;;;23.48;;
14396;SDS011;50653;47.810;13.022;2023-03-01T14:21:44;34.50;;;23.17;;
14396;SDS011;50653;47.810;13.022;2023-03-01T14:24:18;30.63;;;24.48;;
14396;SDS011;50653;47.810;13.022;2023-03-01T14:26:46;32.35;;;23.88;;
14396;SDS011;50653;47.810;13.022;2023-03-01T14:29:23;30.63;;;24.20;;
14396;SDS011;50653;47.810;13.022;2023-03-01T14:34:58;28.45;;;22.85;;
14396;SDS011;50653;47.810;13.022;2023-03-01T14:37:26;26.83;;;22.67;;
14396;SDS011;50653;47.810;13.022;2023-03-01T14:39:57;28.40;;;23.85;;
14396;SDS011;50653;47.810;13.022;2023-03-01T14:42:25;29.17;;;23.15;;
14396;SDS011;50653;47.810;13.022;2023-03-01T14:44:54;29.67;;;23.45;;
14396;SDS011;50653;47.810;13.022;2023-03-01T14:49:48;27.40;;;24.10;;
14396;SDS011;50653;47.810;13.022;2023-03-01T14:52:22;29.30;;;23.67;;
14396;SDS011;50653;47.810;13.022;2023-03-01T14:54:51;29.83;;;25.20;;
14396;SDS011;50653;47.810;13.022;2023-03-01T14:57:20;29.52;;;23.92;;
14396;SDS011;50653;47.810;13.022;2023-03-01T14:59:48;29.80;;;23.75;;
14396;SDS011;50653;47.810;13.022;2023-03-01T15:02:20;29.30;;;24.90;;
14396;SDS011;50653;47.810;13.022;2023-03-01T15:04:51;28.88;;;23.50;;
14396;SDS011;50653;47.810;13.022;2023-03-01T15:07:21;34.92;;;24.77;;
14396;SDS011;50653;47.810;13.022;2023-03-01T15:09:51;27.53;;;22.43;;
14396;SDS011;50653;47.810;13.022;2023-03-01T15:12:34;31.10;;;24.13;;
14396;SDS011;50653;47.810;13.022;2023-03-01T15:15:01;27.20;;;22.92;;
14396;SDS011;50653;47.810;13.022;2023-03-01T15:17:49;27.98;;;22.63;;
14396;SDS011;50653;47.810;13.022;2023-03-01T15:20:20;27.05;;;22.20;;
14396;SDS011;50653;47.810;13.022;2023-03-01T15:22:51;30.25;;;22.98;;
14396;SDS011;50653;47.810;13.022;2023-03-01T15:25:18;31.27;;;24.23;;
14396;SDS011;50653;47.810;13.022;2023-03-01T15:27:46;35.33;;;25.80;;
14396;SDS011;50653;47.810;13.022;2023-03-01T15:30:17;35.00;;;28.10;;
14396;SDS011;50653;47.810;13.022;2023-03-01T15:32:46;33.90;;;26.70;;
14396;SDS011;50653;47.810;13.022;2023-03-01T15:40:58;34.38;;;27.30;;
14396;SDS011;50653;47.810;13.022;2023-03-01T15:43:45;32.80;;;26.90;;
14396;SDS011;50653;47.810;13.022;2023-03-01T15:49:04;37.72;;;28.42;;
14396;SDS011;50653;47.810;13.022;2023-03-01T15:51:43;34.08;;;26.45;;
14396;SDS011;50653;47.810;13.022;2023-03-01T15:54:20;36.30;;;28.02;;
14396;SDS011;50653;47.810;13.022;2023-03-01T15:56:48;33.10;;;28.23;;
14396;SDS011;50653;47.810;13.022;2023-03-01T15:59:15;37.17;;;27.55;;
14396;SDS011;50653;47.810;13.022;2023-03-01T16:01:41;37.03;;;27.97;;
14396;SDS011;50653;47.810;13.022;2023-03-01T16:04:11;38.80;;;29.33;;
14396;SDS011;50653;47.810;13.022;2023-03-01T16:06:46;35.97;;;27.23;;
14396;SDS011;50653;47.810;13.022;2023-03-01T16:09:28;36.00;;;28.47;;
14396;SDS011;50653;47.810;13.022;2023-03-01T16:11:53;34.78;;;28.38;;
14396;SDS011;50653;47.810;13.022;2023-03-01T16:14:19;40.30;;;29.63;;
14396;SDS011;50653;47.810;13.022;2023-03-01T16:16:45;36.58;;;29.17;;
14396;SDS011;50653;47.810;13.022;2023-03-01T16:19:13;36.28;;;27.63;;
14396;SDS011;50653;47.810;13.022;2023-03-01T16:21:39;35.85;;;26.75;;
14396;SDS011;50653;47.810;13.022;2023-03-01T16:24:05;36.95;;;28.15;;
14396;SDS011;50653;47.810;13.022;2023-03-01T16:26:31;35.70;;;29.40;;
14396;SDS011;50653;47.810;13.022;2023-03-01T16:28:57;36.20;;;27.40;;
14396;SDS011;50653;47.810;13.022;2023-03-01T16:31:24;39.25;;;29.45;;
14396;SDS011;50653;47.810;13.022;2023-03-01T16:33:55;38.07;;;29.27;;
14396;SDS011;50653;47.810;13.022;2023-03-01T16:36:23;39.40;;;28.30;;
14396;SDS011;50653;47.810;13.022;2023-03-01T16:38:50;36.67;;;27.73;;
14396;SDS011;50653;47.810;13.022;2023-03-01T16:41:18;38.95;;;29.88;;
14396;SDS011;50653;47.810;13.022;2023-03-01T16:43:45;46.72;;;32.95;;
14396;SDS011;50653;47.810;13.022;2023-03-01T16:46:27;44.40;;;33.30;;
14396;SDS011;50653;47.810;13.022;2023-03-01T16:48:53;42.80;;;31.08;;
14396;SDS011;50653;47.810;13.022;2023-03-01T16:51:19;38.97;;;27.40;;
14396;SDS011;50653;47.810;13.022;2023-03-01T16:53:45;34.30;;;29.38;;